createdAt,value
2022-10-20T00:00:51.953Z,8.02
2022-10-20T00:03:18.372Z,8.01
2022-10-20T00:05:44.808Z,8.00
2022-10-20T00:08:11.206Z,7.99
2022-10-20T00:10:37.659Z,7.99
2022-10-20T00:13:04.095Z,7.98
2022-10-20T00:15:30.541Z,7.97
2022-10-20T00:17:56.961Z,7.96
2022-10-20T00:20:23.443Z,7.93
2022-10-20T00:22:49.877Z,7.93
2022-10-20T00:25:16.452Z,7.93
2022-10-20T00:27:42.923Z,7.91
2022-10-20T00:30:09.762Z,7.91
2022-10-20T00:32:36.643Z,7.89
2022-10-20T00:35:03.477Z,7.89
2022-10-20T00:37:29.905Z,7.88
2022-10-20T00:39:56.287Z,7.87
2022-10-20T00:42:22.725Z,7.87
2022-10-20T00:44:51.931Z,7.87
2022-10-20T00:47:41.312Z,7.86
2022-10-20T00:50:12.572Z,7.87
2022-10-20T00:52:39.952Z,7.88
2022-10-20T00:55:09.633Z,7.86
2022-10-20T00:57:37.352Z,7.84
2022-10-20T01:00:06.511Z,7.84
2022-10-20T01:02:32.981Z,7.82
2022-10-20T01:04:59.501Z,7.81
2022-10-20T01:07:25.891Z,7.82
2022-10-20T01:09:52.614Z,7.80
2022-10-20T01:12:30.397Z,7.79
2022-10-20T01:15:11.486Z,7.77
2022-10-20T01:17:46.813Z,7.76
2022-10-20T01:20:31.646Z,7.75
2022-10-20T01:23:31.313Z,7.75
2022-10-20T01:26:16.612Z,7.73
2022-10-20T01:28:51.668Z,7.72
2022-10-20T01:31:44.159Z,7.70
2022-10-20T01:34:20.957Z,7.69
2022-10-20T01:36:56.585Z,7.66
2022-10-20T01:39:40.675Z,7.65
2022-10-20T01:42:22.992Z,7.61
2022-10-20T01:44:53.634Z,7.61
2022-10-20T01:47:22.457Z,7.58
2022-10-20T01:49:49.858Z,7.57
2022-10-20T01:52:17.049Z,7.55
2022-10-20T01:54:43.840Z,7.54
2022-10-20T01:57:19.538Z,7.55
2022-10-20T01:59:52.364Z,7.54
2022-10-20T02:02:27.538Z,7.52
2022-10-20T02:05:18.669Z,7.51
2022-10-20T02:07:45.109Z,7.50
2022-10-20T02:10:27.614Z,7.50
2022-10-20T02:13:04.348Z,7.50
2022-10-20T02:15:33.247Z,7.47
2022-10-20T02:18:03.457Z,7.48
2022-10-20T02:20:31.337Z,7.48
2022-10-20T02:23:04.505Z,7.48
2022-10-20T02:25:33.260Z,7.47
2022-10-20T02:30:33.022Z,7.46
2022-10-20T02:32:59.455Z,7.48
2022-10-20T02:35:33.482Z,7.47
2022-10-20T02:38:00.881Z,7.47
2022-10-20T02:40:27.711Z,7.46
2022-10-20T02:42:54.397Z,7.47
2022-10-20T02:45:21.248Z,7.45
2022-10-20T02:47:47.685Z,7.44
2022-10-20T02:50:14.106Z,7.44
2022-10-20T02:52:40.814Z,7.45
2022-10-20T02:55:07.670Z,7.44
2022-10-20T02:57:34.480Z,7.44
2022-10-20T03:00:01.111Z,7.43
2022-10-20T03:02:27.518Z,7.43
2022-10-20T03:04:53.948Z,7.41
2022-10-20T03:07:20.484Z,7.39
2022-10-20T03:09:46.891Z,7.39
2022-10-20T03:12:13.290Z,7.37
2022-10-20T03:14:40.168Z,7.37
2022-10-20T03:17:06.583Z,7.35
2022-10-20T03:19:33.007Z,7.35
2022-10-20T03:21:59.465Z,7.34
2022-10-20T03:24:26.127Z,7.33
2022-10-20T03:26:52.588Z,7.32
2022-10-20T03:29:19.142Z,7.31
2022-10-20T03:31:45.560Z,7.32
2022-10-20T03:34:12.760Z,7.29
2022-10-20T03:36:39.278Z,7.30
2022-10-20T03:39:05.676Z,7.28
2022-10-20T03:41:32.329Z,7.28
2022-10-20T03:43:58.748Z,7.28
2022-10-20T03:46:25.233Z,7.28
2022-10-20T03:48:51.658Z,7.28
2022-10-20T03:51:18.188Z,7.30
2022-10-20T03:53:44.630Z,7.29
2022-10-20T03:56:15.584Z,7.29
2022-10-20T03:58:42.016Z,7.29
2022-10-20T04:01:13.813Z,7.31
2022-10-20T04:03:40.349Z,7.30
2022-10-20T04:06:06.837Z,7.30
2022-10-20T04:08:33.316Z,7.29
2022-10-20T04:10:59.853Z,7.29
2022-10-20T04:13:26.290Z,7.28
2022-10-20T04:15:52.714Z,7.30
2022-10-20T04:18:19.244Z,7.30
2022-10-20T04:20:47.606Z,7.31
2022-10-20T04:23:14.446Z,7.31
2022-10-20T04:25:45.622Z,7.32
2022-10-20T04:28:13.083Z,7.32
2022-10-20T04:30:40.355Z,7.33
2022-10-20T04:33:06.880Z,7.33
2022-10-20T04:35:33.689Z,7.33
2022-10-20T04:38:00.250Z,7.33
2022-10-20T04:40:26.677Z,7.36
2022-10-20T04:42:53.150Z,7.38
2022-10-20T04:45:19.537Z,7.41
2022-10-20T04:47:46.052Z,7.43
2022-10-20T04:50:12.631Z,7.44
2022-10-20T04:52:39.045Z,7.44
2022-10-20T04:55:05.791Z,7.46
2022-10-20T04:57:33.530Z,7.47
2022-10-20T05:00:00.088Z,7.48
2022-10-20T05:02:26.632Z,7.49
2022-10-20T05:04:53.066Z,7.51
2022-10-20T05:07:19.592Z,7.52
2022-10-20T05:09:46.007Z,7.56
2022-10-20T05:12:12.406Z,7.57
2022-10-20T05:14:38.864Z,7.60
2022-10-20T05:17:07.872Z,7.60
2022-10-20T05:19:36.421Z,7.61
2022-10-20T05:22:03.051Z,7.63
2022-10-20T05:24:30.193Z,7.63
2022-10-20T05:26:56.786Z,7.65
2022-10-20T05:29:23.203Z,7.66
2022-10-20T05:31:49.651Z,7.68
2022-10-20T05:34:16.123Z,7.69
2022-10-20T05:36:42.575Z,7.70
2022-10-20T05:39:10.459Z,7.70
2022-10-20T05:41:38.952Z,7.71
2022-10-20T05:44:08.882Z,7.73
2022-10-20T05:46:38.550Z,7.73
2022-10-20T05:49:05.133Z,7.73
2022-10-20T05:51:35.278Z,7.73
2022-10-20T05:54:01.979Z,7.72
2022-10-20T05:56:30.248Z,7.73
2022-10-20T05:58:57.828Z,7.73
2022-10-20T06:01:27.593Z,7.73
2022-10-20T06:03:55.511Z,7.75
2022-10-20T06:06:24.549Z,7.76
2022-10-20T06:08:51.104Z,7.78
2022-10-20T06:11:18.833Z,7.78
2022-10-20T06:13:48.464Z,7.80
2022-10-20T06:16:24.203Z,7.82
2022-10-20T06:18:51.778Z,7.83
2022-10-20T06:21:19.578Z,7.85
2022-10-20T06:23:46.457Z,7.90
2022-10-20T06:26:17.474Z,7.89
2022-10-20T06:28:45.249Z,7.91
2022-10-20T06:31:15.698Z,7.94
2022-10-20T06:33:42.457Z,7.97
2022-10-20T06:36:09.421Z,8.02
2022-10-20T06:38:36.575Z,8.03
2022-10-20T06:41:07.454Z,8.06
2022-10-20T06:43:34.189Z,8.09
2022-10-20T06:46:03.224Z,8.12
2022-10-20T06:48:29.918Z,8.16
2022-10-20T06:51:01.927Z,8.19
2022-10-20T06:53:30.199Z,8.22
2022-10-20T06:56:02.385Z,8.27
2022-10-20T06:58:29.912Z,8.31
2022-10-20T07:01:00.820Z,8.36
2022-10-20T07:03:28.854Z,8.40
2022-10-20T07:05:56.105Z,8.43
2022-10-20T07:08:22.768Z,8.46
2022-10-20T07:11:05.738Z,8.51
2022-10-20T07:13:35.283Z,8.54
2022-10-20T07:16:02.543Z,8.58
2022-10-20T07:18:29.887Z,8.62
2022-10-20T07:21:02.435Z,8.64
2022-10-20T07:23:30.405Z,8.69
2022-10-20T07:26:01.781Z,8.71
2022-10-20T07:28:28.848Z,8.76
2022-10-20T07:30:55.696Z,8.81
2022-10-20T07:33:22.197Z,8.84
2022-10-20T07:35:49.991Z,8.87
2022-10-20T07:38:16.738Z,8.90
2022-10-20T07:40:43.169Z,8.93
2022-10-20T07:43:09.662Z,8.98
2022-10-20T07:45:36.121Z,9.02
2022-10-20T07:48:04.306Z,9.06
2022-10-20T07:50:30.711Z,9.10
2022-10-20T07:52:57.175Z,9.12
2022-10-20T07:55:38.024Z,9.16
2022-10-20T07:58:05.418Z,9.19
2022-10-20T08:00:32.071Z,9.24
2022-10-20T08:02:58.566Z,9.28
2022-10-20T08:05:25.050Z,9.32
2022-10-20T08:07:51.530Z,9.35
2022-10-20T08:10:18.174Z,9.39
2022-10-20T08:12:44.665Z,9.42
2022-10-20T08:15:14.121Z,9.46
2022-10-20T08:17:45.547Z,9.50
2022-10-20T08:20:26.449Z,9.53
2022-10-20T08:22:53.901Z,9.60
2022-10-20T08:25:20.400Z,9.68
2022-10-20T08:27:46.877Z,9.74
2022-10-20T08:30:23.534Z,9.80
2022-10-20T08:32:54.233Z,9.87
2022-10-20T08:35:21.959Z,9.94
2022-10-20T08:37:48.490Z,10.02
2022-10-20T08:40:36.179Z,10.11
2022-10-20T08:43:02.694Z,10.20
2022-10-20T08:45:29.403Z,10.27
2022-10-20T08:47:58.733Z,10.35
2022-10-20T08:50:28.410Z,10.41
2022-10-20T08:52:59.300Z,10.48
2022-10-20T08:55:31.651Z,10.58
2022-10-20T08:58:04.454Z,10.66
2022-10-20T09:00:32.168Z,10.71
2022-10-20T09:03:21.908Z,10.76
2022-10-20T09:05:52.608Z,10.82
2022-10-20T09:08:21.470Z,10.87
2022-10-20T09:10:51.118Z,10.89
2022-10-20T09:13:25.222Z,10.92
2022-10-20T09:15:56.018Z,10.95
2022-10-20T09:18:22.632Z,10.99
2022-10-20T09:20:56.001Z,10.99
2022-10-20T09:23:40.618Z,11.01
2022-10-20T09:26:24.898Z,11.01
2022-10-20T09:29:14.648Z,11.03
2022-10-20T09:31:53.230Z,11.01
2022-10-20T09:34:27.360Z,11.00
2022-10-20T09:37:04.911Z,11.01
2022-10-20T09:39:39.642Z,11.01
2022-10-20T09:42:22.752Z,11.03
2022-10-20T09:44:54.288Z,11.05
2022-10-20T09:47:22.975Z,11.09
2022-10-20T09:50:01.092Z,11.13
2022-10-20T09:52:34.532Z,11.18
2022-10-20T09:55:24.036Z,11.22
2022-10-20T09:57:50.759Z,11.25
2022-10-20T10:00:41.825Z,11.26
2022-10-20T10:03:21.373Z,11.28
2022-10-20T10:05:53.935Z,11.30
2022-10-20T10:08:23.450Z,11.32
2022-10-20T10:11:20.888Z,11.35
2022-10-20T10:13:52.972Z,11.37
2022-10-20T10:16:21.993Z,11.40
2022-10-20T10:19:04.729Z,11.41
2022-10-20T10:21:54.421Z,11.43
2022-10-20T10:24:32.311Z,11.46
2022-10-20T10:26:59.613Z,11.49
2022-10-20T10:29:37.863Z,11.54
2022-10-20T10:32:15.659Z,11.58
2022-10-20T10:35:07.867Z,11.60
2022-10-20T10:37:37.042Z,11.64
2022-10-20T10:40:22.164Z,11.64
2022-10-20T10:42:48.588Z,11.66
2022-10-20T10:45:18.768Z,11.66
2022-10-20T10:48:29.865Z,11.66
2022-10-20T10:51:18.934Z,11.67
2022-10-20T10:54:27.452Z,11.67
2022-10-20T10:56:59.243Z,11.68
2022-10-20T10:59:34.947Z,11.69
2022-10-20T11:02:16.340Z,11.67
2022-10-20T11:04:51.836Z,11.67
2022-10-20T11:07:26.849Z,11.65
2022-10-20T11:10:21.675Z,11.65
2022-10-20T11:13:16.214Z,11.65
2022-10-20T11:15:45.628Z,11.64
2022-10-20T11:18:27.231Z,11.65
2022-10-20T11:21:28.000Z,11.65
2022-10-20T11:24:02.369Z,11.64
2022-10-20T11:26:33.836Z,11.66
2022-10-20T11:29:02.803Z,11.66
2022-10-20T11:31:56.102Z,11.68
2022-10-20T11:34:37.472Z,11.70
2022-10-20T11:37:15.275Z,11.71
2022-10-20T11:39:48.844Z,11.74
2022-10-20T11:42:40.061Z,11.76
2022-10-20T11:45:26.699Z,11.79
2022-10-20T11:48:04.272Z,11.82
2022-10-20T11:50:31.788Z,11.85
2022-10-20T11:53:25.068Z,11.89
2022-10-20T11:56:00.766Z,11.89
2022-10-20T11:58:48.250Z,11.90
2022-10-20T12:01:33.314Z,11.90
2022-10-20T12:04:10.238Z,11.91
2022-10-20T12:06:55.577Z,11.93
2022-10-20T12:09:41.975Z,11.94
2022-10-20T12:12:30.109Z,11.94
2022-10-20T12:14:59.540Z,11.96
2022-10-20T12:17:36.114Z,11.95
2022-10-20T12:20:20.715Z,11.97
2022-10-20T12:23:05.517Z,11.99
2022-10-20T12:25:38.959Z,11.99
2022-10-20T12:28:32.928Z,12.01
2022-10-20T12:31:04.872Z,12.06
2022-10-20T12:33:39.364Z,12.07
2022-10-20T12:36:26.012Z,12.12
2022-10-20T12:39:06.279Z,12.15
2022-10-20T12:41:36.064Z,12.20
2022-10-20T12:44:17.052Z,12.26
2022-10-20T12:46:57.416Z,12.32
2022-10-20T12:49:30.947Z,12.37
2022-10-20T12:51:59.377Z,12.36
2022-10-20T12:54:44.897Z,12.38
2022-10-20T12:57:38.461Z,12.39
2022-10-20T13:00:08.283Z,12.40
2022-10-20T13:02:45.561Z,12.43
2022-10-20T13:05:11.941Z,12.47
2022-10-20T13:07:50.245Z,12.52
2022-10-20T13:10:37.745Z,12.59
2022-10-20T13:13:04.142Z,12.64
2022-10-20T13:15:47.548Z,12.66
2022-10-20T13:18:15.959Z,12.70
2022-10-20T13:20:55.414Z,12.76
2022-10-20T13:23:39.432Z,12.82
2022-10-20T13:26:22.627Z,12.90
2022-10-20T13:28:52.339Z,12.98
2022-10-20T13:31:43.625Z,13.11
2022-10-20T13:34:22.453Z,13.27
2022-10-20T13:37:11.825Z,13.42
2022-10-20T13:40:03.534Z,13.54
2022-10-20T13:42:49.571Z,13.65
2022-10-20T13:45:28.149Z,13.73
2022-10-20T13:48:19.439Z,13.75
2022-10-20T13:51:20.801Z,13.71
2022-10-20T13:53:51.208Z,13.69
2022-10-20T13:56:17.618Z,13.67
2022-10-20T13:59:13.628Z,13.67
2022-10-20T14:01:47.009Z,13.69
2022-10-20T14:04:39.713Z,13.67
2022-10-20T14:07:13.169Z,13.68
2022-10-20T14:09:45.316Z,13.68
2022-10-20T14:12:22.374Z,13.67
2022-10-20T14:14:48.979Z,13.64
2022-10-20T14:17:23.680Z,13.68
2022-10-20T14:19:50.502Z,13.72
2022-10-20T14:22:23.104Z,13.76
2022-10-20T14:24:53.169Z,13.81
2022-10-20T14:27:32.560Z,13.86
2022-10-20T14:30:00.418Z,13.90
2022-10-20T14:32:30.113Z,13.93
2022-10-20T14:35:42.933Z,13.95
2022-10-20T14:38:20.440Z,14.03
2022-10-20T14:40:56.152Z,14.05
2022-10-20T14:43:26.794Z,14.05
2022-10-20T14:45:59.516Z,14.09
2022-10-20T14:48:36.047Z,14.10
2022-10-20T14:51:22.551Z,14.13
2022-10-20T14:53:49.108Z,14.16
2022-10-20T14:56:25.603Z,14.13
2022-10-20T14:59:01.464Z,14.12
2022-10-20T15:01:32.004Z,14.13
2022-10-20T15:04:16.372Z,14.14
2022-10-20T15:06:44.196Z,14.15
2022-10-20T15:09:32.285Z,14.15
2022-10-20T15:11:59.011Z,14.18
2022-10-20T15:14:25.482Z,14.17
2022-10-20T15:16:51.902Z,14.15
2022-10-20T15:19:28.966Z,14.19
2022-10-20T15:21:58.955Z,14.22
2022-10-20T15:24:25.396Z,14.24
2022-10-20T15:26:52.294Z,14.22
2022-10-20T15:29:18.850Z,14.24
2022-10-20T15:31:45.600Z,14.24
2022-10-20T15:34:12.321Z,14.20
2022-10-20T15:36:41.989Z,14.18
2022-10-20T15:39:09.196Z,14.15
2022-10-20T15:41:36.603Z,14.11
2022-10-20T15:44:22.431Z,14.07
2022-10-20T15:46:53.546Z,14.03
2022-10-20T15:49:20.380Z,13.99
2022-10-20T15:51:47.858Z,13.98
2022-10-20T15:54:16.402Z,13.96
2022-10-20T15:56:43.369Z,13.96
2022-10-20T15:59:09.946Z,13.94
2022-10-20T16:01:36.556Z,13.92
2022-10-20T16:04:16.750Z,13.89
2022-10-20T16:06:43.691Z,13.86
2022-10-20T16:09:13.387Z,13.84
2022-10-20T16:11:42.354Z,13.82
2022-10-20T16:14:08.869Z,13.79
2022-10-20T16:16:35.341Z,13.75
2022-10-20T16:19:01.792Z,13.72
2022-10-20T16:21:28.254Z,13.67
2022-10-20T16:23:54.657Z,13.65
2022-10-20T16:26:21.655Z,13.64
2022-10-20T16:28:48.269Z,13.63
2022-10-20T16:31:16.572Z,13.60
2022-10-20T16:33:43.655Z,13.54
2022-10-20T16:36:12.508Z,13.50
2022-10-20T16:38:40.268Z,13.46
2022-10-20T16:41:12.684Z,13.43
2022-10-20T16:43:41.213Z,13.39
2022-10-20T16:46:09.431Z,13.37
2022-10-20T16:48:37.833Z,13.37
2022-10-20T16:51:06.193Z,13.34
2022-10-20T16:53:32.614Z,13.32
2022-10-20T16:55:59.129Z,13.30
2022-10-20T16:58:25.597Z,13.27
2022-10-20T17:00:59.369Z,13.26
2022-10-20T17:03:25.859Z,13.24
2022-10-20T17:05:59.614Z,13.24
2022-10-20T17:08:27.917Z,13.24
2022-10-20T17:10:56.450Z,13.23
2022-10-20T17:13:23.016Z,13.23
2022-10-20T17:15:49.714Z,13.21
2022-10-20T17:18:16.664Z,13.19
2022-10-20T17:20:43.090Z,13.19
2022-10-20T17:23:09.529Z,13.18
2022-10-20T17:25:37.439Z,13.18
2022-10-20T17:28:04.094Z,13.15
2022-10-20T17:30:30.584Z,13.16
2022-10-20T17:32:57.034Z,13.16
2022-10-20T17:35:23.549Z,13.14
2022-10-20T17:37:50.065Z,13.15
2022-10-20T17:42:47.911Z,13.13
2022-10-20T17:45:14.446Z,13.11
2022-10-20T17:47:40.886Z,13.10
2022-10-20T17:52:35.308Z,13.07
2022-10-20T17:55:02.105Z,13.08
2022-10-20T17:57:31.749Z,13.08
2022-10-20T18:00:00.354Z,13.07
2022-10-20T18:02:29.295Z,13.07
2022-10-20T18:04:55.722Z,13.05
2022-10-20T18:07:22.277Z,13.03
2022-10-20T18:09:48.829Z,13.02
2022-10-20T18:12:15.316Z,13.02
2022-10-20T18:14:41.891Z,13.02
2022-10-20T18:17:08.570Z,13.02
2022-10-20T18:19:35.008Z,13.03
2022-10-20T18:22:02.108Z,13.01
2022-10-20T18:24:28.590Z,13.01
2022-10-20T18:26:55.102Z,13.01
2022-10-20T18:29:22.038Z,13.01
2022-10-20T18:31:48.583Z,13.02
2022-10-20T18:34:20.551Z,13.01
2022-10-20T18:36:49.808Z,13.01
2022-10-20T18:39:17.186Z,13.02
2022-10-20T18:41:44.361Z,13.01
2022-10-20T18:44:18.423Z,13.00
2022-10-20T18:46:46.541Z,12.98
2022-10-20T18:49:15.804Z,12.99
2022-10-20T18:51:42.375Z,13.00
2022-10-20T18:54:09.475Z,12.99
2022-10-20T18:56:36.431Z,12.98
2022-10-20T18:59:10.547Z,12.98
2022-10-20T19:01:39.006Z,12.98
2022-10-20T19:04:06.601Z,12.97
2022-10-20T19:06:41.182Z,12.97
2022-10-20T19:09:10.428Z,12.99
2022-10-20T19:11:39.516Z,12.99
2022-10-20T19:14:09.683Z,13.00
2022-10-20T19:16:36.881Z,13.00
2022-10-20T19:19:05.695Z,13.01
2022-10-20T19:21:33.580Z,13.00
2022-10-20T19:24:04.957Z,12.99
2022-10-20T19:26:33.735Z,12.99
2022-10-20T19:29:04.291Z,12.97
2022-10-20T19:31:32.151Z,12.96
2022-10-20T19:34:06.899Z,12.95
2022-10-20T19:36:33.550Z,12.95
2022-10-20T19:39:00.155Z,12.93
2022-10-20T19:41:26.696Z,12.93
2022-10-20T19:43:53.680Z,12.91
2022-10-20T19:46:21.716Z,12.90
2022-10-20T19:48:48.772Z,12.89
2022-10-20T19:51:16.845Z,12.87
2022-10-20T19:53:44.280Z,12.86
2022-10-20T19:56:11.138Z,12.87
2022-10-20T19:58:42.590Z,12.85
2022-10-20T20:01:12.297Z,12.85
2022-10-20T20:03:38.808Z,12.86
2022-10-20T20:06:12.291Z,12.85
2022-10-20T20:08:38.857Z,12.84
2022-10-20T20:11:05.971Z,12.81
2022-10-20T20:13:32.547Z,12.80
2022-10-20T20:16:07.052Z,12.78
2022-10-20T20:18:34.997Z,12.79
2022-10-20T20:21:04.225Z,12.77
2022-10-20T20:23:41.131Z,12.76
2022-10-20T20:26:18.171Z,12.74
2022-10-20T20:28:44.609Z,12.72
2022-10-20T20:31:12.331Z,12.73
2022-10-20T20:33:38.833Z,12.72
2022-10-20T20:36:07.925Z,12.69
2022-10-20T20:38:36.432Z,12.67
2022-10-20T20:41:06.685Z,12.65
2022-10-20T20:43:34.982Z,12.64
2022-10-20T20:46:18.777Z,12.62
2022-10-20T20:48:45.555Z,12.61
2022-10-20T20:51:13.440Z,12.59
2022-10-20T20:53:40.759Z,12.59
2022-10-20T20:56:10.302Z,12.59
2022-10-20T20:58:37.425Z,12.58
2022-10-20T21:01:19.694Z,12.57
2022-10-20T21:03:46.919Z,12.56
2022-10-20T21:06:16.060Z,12.55
2022-10-20T21:08:45.163Z,12.53
2022-10-20T21:11:20.307Z,12.53
2022-10-20T21:13:48.436Z,12.51
2022-10-20T21:16:28.548Z,12.50
2022-10-20T21:18:58.448Z,12.50
2022-10-20T21:21:30.976Z,12.50
2022-10-20T21:23:58.573Z,12.50
2022-10-20T21:26:25.806Z,12.49
2022-10-20T21:28:53.091Z,12.49
2022-10-20T21:31:22.026Z,12.49
2022-10-20T21:33:53.403Z,12.49
2022-10-20T21:36:21.153Z,12.49
2022-10-20T21:38:48.327Z,12.49
2022-10-20T21:41:16.535Z,12.48
2022-10-20T21:43:46.239Z,12.48
2022-10-20T21:46:17.354Z,12.48
2022-10-20T21:48:45.408Z,12.47
2022-10-20T21:51:18.081Z,12.46
2022-10-20T21:53:45.168Z,12.45
2022-10-20T21:56:12.314Z,12.43
2022-10-20T21:58:39.058Z,12.45
2022-10-20T22:01:10.014Z,12.43
2022-10-20T22:03:36.498Z,12.41
2022-10-20T22:06:03.337Z,12.39
2022-10-20T22:08:29.886Z,12.38
2022-10-20T22:10:56.384Z,12.36
2022-10-20T22:13:22.862Z,12.33
2022-10-20T22:15:49.340Z,12.33
2022-10-20T22:18:15.745Z,12.34
2022-10-20T22:20:42.208Z,12.34
2022-10-20T22:23:08.675Z,12.35
2022-10-20T22:25:37.760Z,12.36
2022-10-20T22:28:07.039Z,12.33
2022-10-20T22:30:34.509Z,12.33
2022-10-20T22:33:01.229Z,12.33
2022-10-20T22:35:28.419Z,12.33
2022-10-20T22:37:54.894Z,12.32
2022-10-20T22:40:21.373Z,12.32
2022-10-20T22:42:47.857Z,12.32
2022-10-20T22:45:14.476Z,12.32
2022-10-20T22:47:40.894Z,12.30
2022-10-20T22:50:07.672Z,12.30
2022-10-20T22:52:34.153Z,12.30
2022-10-20T22:55:00.543Z,12.30
2022-10-20T22:57:26.968Z,12.31
2022-10-20T22:59:53.446Z,12.31
2022-10-20T23:02:19.863Z,12.29
2022-10-20T23:04:46.350Z,12.27
2022-10-20T23:07:12.777Z,12.25
2022-10-20T23:09:39.194Z,12.24
2022-10-20T23:12:05.633Z,12.24
2022-10-20T23:14:32.099Z,12.22
2022-10-20T23:16:58.566Z,12.22
2022-10-20T23:19:25.049Z,12.22
2022-10-20T23:21:51.504Z,12.23
2022-10-20T23:24:18.068Z,12.24
2022-10-20T23:26:44.528Z,12.23
2022-10-20T23:29:10.938Z,12.24
2022-10-20T23:31:37.375Z,12.25
2022-10-20T23:34:03.784Z,12.27
2022-10-20T23:36:30.383Z,12.30
2022-10-20T23:38:58.128Z,12.32
2022-10-20T23:41:24.577Z,12.32
2022-10-20T23:43:51.127Z,12.32
2022-10-20T23:46:17.619Z,12.34
2022-10-20T23:48:44.031Z,12.35
2022-10-20T23:51:10.470Z,12.38
2022-10-20T23:53:37.296Z,12.39
2022-10-20T23:56:03.879Z,12.41
2022-10-20T23:58:30.472Z,12.44
